CPA123 VHHX-RJAA
Flight info
| Callsign | CPA123 |
|---|---|
| Flight time | N/A |
| Altitude | 37000 |
| Route | ENVAR M750 BILLY RUTAS |
| Aircraft | B77W/H-SDE1E2E3FGHIJ2J3J4J5M1RWXY/LB1D1 |
Departure
| Time | 2026-05-06 09:00 |
|---|---|
| Airport | Hong Kong International Airport Kai Tak (VHHX) |
Arrival
| Time | N/A |
|---|---|
| Airport | Narita International Airport (RJAA) |
| Time | Latitude | Longitude | Altitude | Speed | Heading |
|---|---|---|---|---|---|
| 2026-05-06 08:43 | 22.32834 | 114.19547 | 42 ft | 0 kts | 314° |
| 2026-05-06 08:52 | 22.32832 | 114.19550 | 42 ft | 3 kts | 314° |
| 2026-05-06 08:52 | 22.32814 | 114.19571 | 42 ft | 4 kts | 312° |
| 2026-05-06 08:53 | 22.32802 | 114.19584 | 45 ft | 2 kts | 348° |
| 2026-05-06 08:53 | 22.32781 | 114.19587 | 43 ft | 4 kts | 12° |
| 2026-05-06 08:53 | 22.32761 | 114.19577 | 41 ft | 4 kts | 43° |
| 2026-05-06 08:53 | 22.32743 | 114.19558 | 40 ft | 2 kts | 44° |
| 2026-05-06 08:54 | 22.32739 | 114.19555 | 40 ft | 0 kts | 44° |
| 2026-05-06 08:55 | 22.32740 | 114.19555 | 40 ft | 0 kts | 44° |
| 2026-05-06 08:55 | 22.32755 | 114.19571 | 41 ft | 6 kts | 44° |
| 2026-05-06 08:56 | 22.32804 | 114.19622 | 45 ft | 14 kts | 44° |
| 2026-05-06 08:56 | 22.32896 | 114.19719 | 45 ft | 22 kts | 46° |
| 2026-05-06 08:56 | 22.32901 | 114.19832 | 44 ft | 16 kts | 125° |
| 2026-05-06 08:56 | 22.32800 | 114.19913 | 44 ft | 18 kts | 156° |
| 2026-05-06 08:57 | 22.32691 | 114.20017 | 44 ft | 24 kts | 139° |
| 2026-05-06 08:57 | 22.32600 | 114.20036 | 44 ft | 14 kts | 194° |
| 2026-05-06 08:57 | 22.32483 | 114.19994 | 45 ft | 22 kts | 198° |
| 2026-05-06 08:57 | 22.32309 | 114.19932 | 45 ft | 30 kts | 196° |
| 2026-05-06 08:58 | 22.32085 | 114.19937 | 45 ft | 35 kts | 159° |
| 2026-05-06 08:58 | 22.31894 | 114.20118 | 45 ft | 40 kts | 135° |
| 2026-05-06 08:58 | 22.31694 | 114.20345 | 44 ft | 45 kts | 134° |
| 2026-05-06 08:58 | 22.31466 | 114.20598 | 44 ft | 49 kts | 134° |
| 2026-05-06 08:59 | 22.31219 | 114.20877 | 44 ft | 53 kts | 134° |
| 2026-05-06 08:59 | 22.30960 | 114.21167 | 44 ft | 52 kts | 132° |
| 2026-05-06 08:59 | 22.30812 | 114.21253 | 46 ft | 13 kts | 219° |
| 2026-05-06 08:59 | 22.30813 | 114.21176 | 44 ft | 10 kts | 309° |
| 2026-05-06 09:00 | 22.30893 | 114.21082 | 45 ft | 34 kts | 313° |
| 2026-05-06 09:00 | 22.31271 | 114.20663 | 45 ft | 121 kts | 314° |
| 2026-05-06 09:00 | 22.32045 | 114.19807 | 97 ft | 189 kts | 316° |
| 2026-05-06 09:00 | 22.32967 | 114.18709 | 671 ft | 209 kts | 309° |
| 2026-05-06 09:01 | 22.33469 | 114.17187 | 987 ft | 225 kts | 264° |
| 2026-05-06 09:01 | 22.32924 | 114.15618 | 1441 ft | 230 kts | 237° |
| 2026-05-06 09:01 | 22.32200 | 114.13967 | 1722 ft | 259 kts | 247° |
| 2026-05-06 09:01 | 22.31553 | 114.12102 | 2587 ft | 266 kts | 247° |
| 2026-05-06 09:02 | 22.30883 | 114.10274 | 3791 ft | 258 kts | 247° |
| 2026-05-06 09:02 | 22.30207 | 114.08475 | 4809 ft | 260 kts | 247° |
| 2026-05-06 09:02 | 22.29464 | 114.06688 | 5661 ft | 263 kts | 237° |
| 2026-05-06 09:02 | 22.28109 | 114.05352 | 6462 ft | 268 kts | 207° |
| 2026-05-06 09:03 | 22.26383 | 114.04800 | 7301 ft | 273 kts | 186° |
| 2026-05-06 09:03 | 22.24489 | 114.04580 | 7905 ft | 277 kts | 201° |
| 2026-05-06 09:03 | 22.22757 | 114.03691 | 8561 ft | 277 kts | 205° |
| 2026-05-06 09:03 | 22.20843 | 114.03358 | 8938 ft | 287 kts | 174° |
| 2026-05-06 09:04 | 22.18944 | 114.04122 | 8933 ft | 296 kts | 152° |
| 2026-05-06 09:04 | 22.17208 | 114.05278 | 8939 ft | 298 kts | 151° |
| 2026-05-06 09:04 | 22.15443 | 114.06444 | 8923 ft | 296 kts | 152° |
| 2026-05-06 09:04 | 22.13683 | 114.07565 | 8916 ft | 292 kts | 153° |
| 2026-05-06 09:05 | 22.11932 | 114.08642 | 8924 ft | 292 kts | 153° |
| 2026-05-06 09:05 | 22.10153 | 114.09708 | 8934 ft | 293 kts | 154° |
| 2026-05-06 09:05 | 22.08358 | 114.10765 | 8937 ft | 294 kts | 154° |
| 2026-05-06 09:05 | 22.06555 | 114.11815 | 8933 ft | 295 kts | 154° |
| 2026-05-06 09:06 | 22.04738 | 114.12866 | 8931 ft | 296 kts | 154° |
| 2026-05-06 09:06 | 22.02919 | 114.13913 | 8922 ft | 297 kts | 154° |
| 2026-05-06 09:06 | 22.01099 | 114.14958 | 8905 ft | 296 kts | 154° |
| 2026-05-06 09:06 | 21.99311 | 114.15983 | 8920 ft | 294 kts | 154° |
| 2026-05-06 09:07 | 21.97567 | 114.16981 | 8914 ft | 293 kts | 154° |
| 2026-05-06 09:07 | 21.95770 | 114.18010 | 8915 ft | 292 kts | 155° |
| 2026-05-06 09:07 | 21.93977 | 114.19037 | 8913 ft | 291 kts | 155° |
| 2026-05-06 09:07 | 21.92190 | 114.20058 | 8911 ft | 291 kts | 154° |
| 2026-05-06 09:08 | 21.90403 | 114.21080 | 8923 ft | 290 kts | 155° |
| 2026-05-06 09:08 | 21.88616 | 114.22100 | 8916 ft | 291 kts | 155° |
| 2026-05-06 09:08 | 21.86879 | 114.23199 | 8896 ft | 289 kts | 142° |
| 2026-05-06 09:08 | 21.85667 | 114.24932 | 8944 ft | 298 kts | 112° |
| 2026-05-06 09:09 | 21.85267 | 114.27146 | 9502 ft | 308 kts | 91° |
| 2026-05-06 09:09 | 21.85333 | 114.29481 | 10208 ft | 314 kts | 87° |
| 2026-05-06 09:09 | 21.85467 | 114.31838 | 10778 ft | 328 kts | 86° |
| 2026-05-06 09:09 | 21.85627 | 114.34398 | 10946 ft | 358 kts | 86° |
| 2026-05-06 09:10 | 21.85797 | 114.37194 | 10952 ft | 389 kts | 86° |
| 2026-05-06 09:10 | 21.85966 | 114.40142 | 10933 ft | 394 kts | 86° |
| 2026-05-06 09:10 | 21.86125 | 114.43075 | 10924 ft | 392 kts | 87° |
| 2026-05-06 09:10 | 21.86276 | 114.46013 | 10925 ft | 395 kts | 87° |
| 2026-05-06 09:11 | 21.86424 | 114.48971 | 10923 ft | 394 kts | 87° |
| 2026-05-06 09:11 | 21.86569 | 114.51910 | 10916 ft | 393 kts | 87° |
| 2026-05-06 09:11 | 21.86714 | 114.54861 | 10926 ft | 395 kts | 87° |
| 2026-05-06 09:11 | 21.86857 | 114.57810 | 10923 ft | 394 kts | 87° |
| 2026-05-06 09:12 | 21.87000 | 114.60734 | 10920 ft | 393 kts | 87° |
| 2026-05-06 09:12 | 21.87140 | 114.63631 | 10923 ft | 391 kts | 87° |
| 2026-05-06 09:12 | 21.87284 | 114.66599 | 10923 ft | 393 kts | 87° |
| 2026-05-06 09:12 | 21.87426 | 114.69539 | 10923 ft | 393 kts | 87° |
| 2026-05-06 09:13 | 21.87560 | 114.72320 | 10927 ft | 393 kts | 87° |
| 2026-05-06 09:13 | 21.87702 | 114.75250 | 10925 ft | 392 kts | 87° |
| 2026-05-06 09:13 | 21.87844 | 114.78191 | 10930 ft | 393 kts | 87° |
| 2026-05-06 09:13 | 21.87986 | 114.81137 | 10922 ft | 394 kts | 87° |
| 2026-05-06 09:14 | 21.88127 | 114.84083 | 10920 ft | 393 kts | 87° |
| 2026-05-06 09:14 | 21.88269 | 114.87034 | 11160 ft | 396 kts | 87° |
| 2026-05-06 09:14 | 21.88366 | 114.89010 | 11605 ft | 403 kts | 87° |
| 2026-05-06 09:14 | 21.88516 | 114.92049 | 12461 ft | 407 kts | 86° |
| 2026-05-06 09:15 | 21.88661 | 114.94985 | 13306 ft | 412 kts | 86° |
| 2026-05-06 09:15 | 21.88815 | 114.98128 | 14062 ft | 418 kts | 86° |
| 2026-05-06 09:15 | 21.88970 | 115.01276 | 14783 ft | 423 kts | 86° |
| 2026-05-06 09:15 | 21.89125 | 115.04457 | 15522 ft | 427 kts | 87° |
| 2026-05-06 09:16 | 21.89276 | 115.07587 | 16265 ft | 430 kts | 87° |
| 2026-05-06 09:16 | 21.89429 | 115.10768 | 16975 ft | 435 kts | 87° |
| 2026-05-06 09:16 | 21.89586 | 115.14039 | 17629 ft | 441 kts | 87° |
| 2026-05-06 09:16 | 21.89744 | 115.17340 | 18373 ft | 442 kts | 87° |
| 2026-05-06 09:17 | 21.89901 | 115.20631 | 18946 ft | 447 kts | 87° |
| 2026-05-06 09:17 | 21.90060 | 115.24002 | 19447 ft | 454 kts | 87° |
| 2026-05-06 09:17 | 21.90221 | 115.27407 | 20109 ft | 456 kts | 87° |
| 2026-05-06 09:17 | 21.90382 | 115.30830 | 20686 ft | 460 kts | 87° |
| 2026-05-06 09:18 | 21.90542 | 115.34254 | 21249 ft | 464 kts | 87° |
| 2026-05-06 09:18 | 21.90699 | 115.37625 | 21792 ft | 469 kts | 87° |
| 2026-05-06 09:18 | 21.90863 | 115.41151 | 22356 ft | 473 kts | 87° |
| 2026-05-06 09:18 | 21.91027 | 115.44706 | 22906 ft | 477 kts | 87° |
| 2026-05-06 09:19 | 21.91192 | 115.48288 | 23436 ft | 482 kts | 87° |
| 2026-05-06 09:19 | 21.91357 | 115.51910 | 23869 ft | 486 kts | 87° |
| 2026-05-06 09:19 | 21.91523 | 115.55560 | 24312 ft | 489 kts | 87° |
| 2026-05-06 09:19 | 21.91690 | 115.59234 | 24776 ft | 492 kts | 87° |
| 2026-05-06 09:20 | 21.91856 | 115.62933 | 25230 ft | 496 kts | 87° |
| 2026-05-06 09:20 | 21.92023 | 115.66657 | 25660 ft | 499 kts | 87° |
| 2026-05-06 09:20 | 21.92190 | 115.70404 | 26076 ft | 503 kts | 87° |
| 2026-05-06 09:20 | 21.92358 | 115.74178 | 26482 ft | 506 kts | 87° |
| 2026-05-06 09:21 | 21.92526 | 115.77977 | 26907 ft | 509 kts | 87° |
| 2026-05-06 09:21 | 21.92694 | 115.81799 | 27325 ft | 512 kts | 87° |
| 2026-05-06 09:21 | 21.92862 | 115.85646 | 27732 ft | 515 kts | 87° |
| 2026-05-06 09:21 | 21.93029 | 115.89512 | 28122 ft | 518 kts | 87° |
| 2026-05-06 09:22 | 21.93198 | 115.93403 | 28508 ft | 521 kts | 87° |
| 2026-05-06 09:22 | 21.93366 | 115.97326 | 28879 ft | 524 kts | 87° |
| 2026-05-06 09:22 | 21.93534 | 116.01258 | 29227 ft | 527 kts | 87° |
| 2026-05-06 09:22 | 21.93702 | 116.05205 | 29562 ft | 529 kts | 87° |
| 2026-05-06 09:23 | 21.93870 | 116.09180 | 29888 ft | 531 kts | 87° |
| 2026-05-06 09:23 | 21.94037 | 116.13158 | 30253 ft | 531 kts | 87° |
| 2026-05-06 09:23 | 21.94203 | 116.17127 | 30654 ft | 530 kts | 87° |
| 2026-05-06 09:23 | 21.94366 | 116.21051 | 31075 ft | 529 kts | 87° |
| 2026-05-06 09:24 | 21.94529 | 116.25003 | 31495 ft | 527 kts | 87° |
| 2026-05-06 09:24 | 21.94691 | 116.28947 | 31898 ft | 527 kts | 87° |
| 2026-05-06 09:24 | 21.94851 | 116.32881 | 32301 ft | 526 kts | 87° |
| 2026-05-06 09:24 | 21.95011 | 116.36829 | 32706 ft | 525 kts | 87° |
| 2026-05-06 09:25 | 21.95169 | 116.40751 | 33112 ft | 524 kts | 87° |
| 2026-05-06 09:25 | 21.95327 | 116.44673 | 33511 ft | 524 kts | 87° |
| 2026-05-06 09:25 | 21.95483 | 116.48585 | 33895 ft | 523 kts | 87° |
| 2026-05-06 09:25 | 21.95638 | 116.52509 | 34221 ft | 523 kts | 87° |
| 2026-05-06 09:26 | 21.95792 | 116.56414 | 34549 ft | 522 kts | 86° |
| 2026-05-06 09:26 | 21.95945 | 116.60327 | 34883 ft | 521 kts | 86° |
| 2026-05-06 09:26 | 21.96095 | 116.64175 | 35195 ft | 521 kts | 86° |
| 2026-05-06 09:26 | 21.96245 | 116.68069 | 35500 ft | 520 kts | 86° |
| 2026-05-06 09:27 | 21.96395 | 116.71959 | 35804 ft | 520 kts | 86° |
| 2026-05-06 09:27 | 21.96543 | 116.75855 | 36094 ft | 520 kts | 86° |
| 2026-05-06 09:27 | 21.96691 | 116.79744 | 36395 ft | 519 kts | 86° |
| 2026-05-06 09:27 | 21.96838 | 116.83634 | 36692 ft | 519 kts | 86° |
| 2026-05-06 09:28 | 21.96983 | 116.87516 | 36880 ft | 521 kts | 86° |
| 2026-05-06 09:28 | 21.97275 | 116.95347 | 36933 ft | 523 kts | 86° |
| 2026-05-06 09:29 | 21.97560 | 117.03149 | 36927 ft | 518 kts | 86° |
| 2026-05-06 09:29 | 21.97840 | 117.10889 | 36944 ft | 516 kts | 86° |
| 2026-05-06 09:30 | 21.98116 | 117.18613 | 36940 ft | 515 kts | 86° |
| 2026-05-06 09:30 | 21.98389 | 117.26339 | 36935 ft | 515 kts | 86° |
| 2026-05-06 09:31 | 21.98658 | 117.34069 | 36939 ft | 516 kts | 86° |
| 2026-05-06 09:31 | 21.98922 | 117.41764 | 36941 ft | 518 kts | 86° |
| 2026-05-06 09:32 | 21.99444 | 117.49488 | 36932 ft | 514 kts | 74° |
| 2026-05-06 09:32 | 22.00665 | 117.53069 | 36935 ft | 507 kts | 57° |
| 2026-05-06 09:32 | 22.02517 | 117.56270 | 36958 ft | 503 kts | 54° |
| 2026-05-06 09:33 | 22.06319 | 117.62654 | 36946 ft | 508 kts | 54° |
| 2026-05-06 09:33 | 22.10062 | 117.69147 | 36947 ft | 511 kts | 55° |
| 2026-05-06 09:34 | 22.13765 | 117.75709 | 36949 ft | 513 kts | 56° |
| 2026-05-06 09:34 | 22.17470 | 117.82297 | 36946 ft | 514 kts | 56° |
| 2026-05-06 09:35 | 22.21179 | 117.88884 | 36945 ft | 513 kts | 55° |
| 2026-05-06 09:35 | 22.24883 | 117.95464 | 36940 ft | 512 kts | 55° |
| 2026-05-06 09:36 | 22.28582 | 118.02022 | 36941 ft | 510 kts | 54° |
| 2026-05-06 09:36 | 22.32349 | 118.08454 | 36945 ft | 509 kts | 54° |
| 2026-05-06 09:37 | 22.36146 | 118.14896 | 36944 ft | 508 kts | 54° |
| 2026-05-06 09:37 | 22.39917 | 118.21352 | 36945 ft | 508 kts | 54° |
| 2026-05-06 09:38 | 22.43630 | 118.27847 | 36946 ft | 508 kts | 55° |
| 2026-05-06 09:38 | 22.47305 | 118.34376 | 36930 ft | 508 kts | 55° |
| 2026-05-06 09:39 | 22.50989 | 118.40906 | 36946 ft | 508 kts | 55° |
| 2026-05-06 09:39 | 22.54679 | 118.47438 | 36945 ft | 509 kts | 55° |
| 2026-05-06 09:40 | 22.58352 | 118.53936 | 36947 ft | 509 kts | 54° |
| 2026-05-06 09:40 | 22.63942 | 118.63723 | 36952 ft | 509 kts | 54° |
| 2026-05-06 09:41 | 22.67667 | 118.70250 | 36932 ft | 510 kts | 54° |
| 2026-05-06 09:41 | 22.71388 | 118.76790 | 36933 ft | 510 kts | 54° |
| 2026-05-06 09:42 | 22.75111 | 118.83343 | 36943 ft | 510 kts | 54° |
| 2026-05-06 09:42 | 22.78801 | 118.89849 | 36949 ft | 510 kts | 54° |
| 2026-05-06 09:43 | 22.82516 | 118.96405 | 36934 ft | 510 kts | 54° |
| 2026-05-06 09:43 | 22.86229 | 119.02965 | 36935 ft | 510 kts | 54° |
| 2026-05-06 09:44 | 22.89935 | 119.09522 | 36940 ft | 509 kts | 54° |
| 2026-05-06 09:44 | 22.93640 | 119.16086 | 36944 ft | 509 kts | 54° |
| 2026-05-06 09:45 | 22.97334 | 119.22638 | 36938 ft | 510 kts | 54° |
| 2026-05-06 09:45 | 23.01034 | 119.29209 | 36939 ft | 510 kts | 54° |
| 2026-05-06 09:46 | 23.04704 | 119.35737 | 36939 ft | 510 kts | 54° |
| 2026-05-06 09:46 | 23.08396 | 119.42312 | 36938 ft | 510 kts | 54° |
| 2026-05-06 09:47 | 23.12086 | 119.48892 | 36935 ft | 510 kts | 54° |
| 2026-05-06 09:47 | 23.15772 | 119.55473 | 36938 ft | 510 kts | 54° |
| 2026-05-06 09:48 | 23.19454 | 119.62055 | 36933 ft | 510 kts | 54° |
| 2026-05-06 09:48 | 23.23133 | 119.68646 | 36938 ft | 510 kts | 54° |
| 2026-05-06 09:49 | 23.26808 | 119.75243 | 36938 ft | 509 kts | 54° |
| 2026-05-06 09:49 | 23.30461 | 119.81807 | 36939 ft | 509 kts | 54° |
| 2026-05-06 09:50 | 23.34132 | 119.88405 | 36937 ft | 509 kts | 54° |
| 2026-05-06 09:50 | 23.38345 | 119.94509 | 36940 ft | 501 kts | 43° |
| 2026-05-06 09:51 | 23.43323 | 119.99775 | 36941 ft | 498 kts | 38° |
| 2026-05-06 09:51 | 23.48403 | 120.04908 | 36938 ft | 498 kts | 38° |
| 2026-05-06 09:52 | 23.53469 | 120.10085 | 36942 ft | 499 kts | 39° |
| 2026-05-06 09:52 | 23.58512 | 120.15292 | 36946 ft | 499 kts | 39° |
| 2026-05-06 09:53 | 23.63551 | 120.20510 | 36948 ft | 500 kts | 39° |
| 2026-05-06 09:53 | 23.68564 | 120.25703 | 36950 ft | 500 kts | 39° |
| 2026-05-06 09:54 | 23.73616 | 120.30941 | 36951 ft | 500 kts | 39° |
| 2026-05-06 09:54 | 23.78670 | 120.36186 | 36954 ft | 500 kts | 39° |
| 2026-05-06 09:55 | 23.83713 | 120.41427 | 36962 ft | 500 kts | 39° |
| 2026-05-06 09:55 | 23.88757 | 120.46675 | 36965 ft | 500 kts | 39° |
| 2026-05-06 09:56 | 23.93752 | 120.51892 | 36959 ft | 500 kts | 39° |
| 2026-05-06 09:56 | 23.97925 | 120.56293 | 36967 ft | 500 kts | 39° |
| 2026-05-06 09:57 | 24.02958 | 120.61614 | 36967 ft | 500 kts | 39° |
| 2026-05-06 09:57 | 24.07935 | 120.66876 | 36967 ft | 500 kts | 39° |
| 2026-05-06 09:58 | 24.12938 | 120.72168 | 36966 ft | 500 kts | 39° |
| 2026-05-06 09:58 | 24.17942 | 120.77466 | 36971 ft | 500 kts | 39° |
| 2026-05-06 09:59 | 24.22952 | 120.82777 | 36967 ft | 500 kts | 39° |
| 2026-05-06 09:59 | 24.27948 | 120.88081 | 36984 ft | 500 kts | 39° |
| 2026-05-06 10:00 | 24.32947 | 120.93395 | 37001 ft | 500 kts | 39° |
| 2026-05-06 10:00 | 24.37949 | 120.98716 | 37031 ft | 501 kts | 39° |
| 2026-05-06 10:01 | 24.42833 | 121.04187 | 37018 ft | 506 kts | 46° |
| 2026-05-06 10:01 | 24.47246 | 121.10242 | 37034 ft | 507 kts | 47° |
| 2026-05-06 10:02 | 24.51581 | 121.16331 | 37041 ft | 506 kts | 47° |
| 2026-05-06 10:02 | 24.55948 | 121.22398 | 37035 ft | 506 kts | 47° |
| 2026-05-06 10:03 | 24.60324 | 121.28440 | 37029 ft | 505 kts | 47° |
| 2026-05-06 10:03 | 24.64697 | 121.34480 | 37022 ft | 504 kts | 47° |
| 2026-05-06 10:04 | 24.69040 | 121.40490 | 37013 ft | 504 kts | 47° |
| 2026-05-06 10:04 | 24.73394 | 121.46525 | 36993 ft | 503 kts | 47° |
| 2026-05-06 10:05 | 24.77745 | 121.52564 | 37003 ft | 504 kts | 47° |
| 2026-05-06 10:05 | 24.82108 | 121.58629 | 36977 ft | 506 kts | 47° |
| 2026-05-06 10:06 | 24.86486 | 121.64720 | 36980 ft | 507 kts | 47° |
| 2026-05-06 10:06 | 24.90850 | 121.70773 | 36977 ft | 507 kts | 46° |
| 2026-05-06 10:07 | 24.95450 | 121.76660 | 36982 ft | 505 kts | 44° |
| 2026-05-06 10:07 | 25.00104 | 121.82483 | 36975 ft | 505 kts | 44° |
| 2026-05-06 10:08 | 25.04711 | 121.88343 | 36981 ft | 505 kts | 44° |
| 2026-05-06 10:08 | 25.09258 | 121.94174 | 36977 ft | 504 kts | 44° |
| 2026-05-06 10:09 | 25.13838 | 122.00045 | 36989 ft | 503 kts | 44° |
| 2026-05-06 10:09 | 25.18388 | 122.05922 | 36971 ft | 503 kts | 45° |
| 2026-05-06 10:10 | 25.22924 | 122.11807 | 36971 ft | 503 kts | 45° |
| 2026-05-06 10:10 | 25.27430 | 122.17657 | 36976 ft | 503 kts | 45° |
| 2026-05-06 10:11 | 25.31967 | 122.23552 | 36979 ft | 503 kts | 45° |
| 2026-05-06 10:11 | 25.36503 | 122.29450 | 36980 ft | 504 kts | 45° |
| 2026-05-06 10:12 | 25.41042 | 122.35362 | 36977 ft | 504 kts | 45° |
| 2026-05-06 10:12 | 25.45589 | 122.41291 | 36977 ft | 505 kts | 45° |
| 2026-05-06 10:13 | 25.50135 | 122.47227 | 36976 ft | 505 kts | 45° |
| 2026-05-06 10:13 | 25.54688 | 122.53154 | 36977 ft | 506 kts | 44° |
| 2026-05-06 10:14 | 25.59263 | 122.59086 | 36974 ft | 506 kts | 44° |
| 2026-05-06 10:14 | 25.63836 | 122.65027 | 36977 ft | 506 kts | 44° |
| 2026-05-06 10:15 | 25.68396 | 122.70966 | 36975 ft | 506 kts | 44° |
| 2026-05-06 10:15 | 25.72936 | 122.76886 | 36979 ft | 506 kts | 45° |
| 2026-05-06 10:16 | 25.77510 | 122.82860 | 36974 ft | 507 kts | 45° |
| 2026-05-06 10:16 | 25.82069 | 122.88821 | 36979 ft | 507 kts | 45° |
| 2026-05-06 10:17 | 25.86626 | 122.94788 | 36974 ft | 507 kts | 44° |
| 2026-05-06 10:17 | 25.91164 | 123.00736 | 36968 ft | 507 kts | 45° |
| 2026-05-06 10:18 | 25.95721 | 123.06722 | 36985 ft | 507 kts | 45° |
| 2026-05-06 10:18 | 26.00279 | 123.12720 | 36979 ft | 507 kts | 45° |
| 2026-05-06 10:19 | 26.04831 | 123.18722 | 36984 ft | 508 kts | 45° |
| 2026-05-06 10:19 | 26.09386 | 123.24733 | 36980 ft | 508 kts | 45° |
| 2026-05-06 10:20 | 26.13944 | 123.30756 | 36985 ft | 508 kts | 45° |
| 2026-05-06 10:20 | 26.18494 | 123.36777 | 36989 ft | 508 kts | 45° |
| 2026-05-06 10:21 | 26.23021 | 123.42776 | 36987 ft | 509 kts | 45° |
| 2026-05-06 10:21 | 26.27579 | 123.48824 | 36985 ft | 509 kts | 45° |
| 2026-05-06 10:22 | 26.32130 | 123.54870 | 36989 ft | 509 kts | 45° |
| 2026-05-06 10:22 | 26.36684 | 123.60928 | 36987 ft | 510 kts | 45° |
| 2026-05-06 10:23 | 26.41245 | 123.67005 | 36995 ft | 510 kts | 45° |
| 2026-05-06 10:23 | 26.45805 | 123.73087 | 36989 ft | 511 kts | 45° |
| 2026-05-06 10:24 | 26.50345 | 123.79152 | 36996 ft | 512 kts | 45° |
| 2026-05-06 10:24 | 26.54916 | 123.85267 | 36992 ft | 513 kts | 45° |
| 2026-05-06 10:25 | 26.59497 | 123.91404 | 36997 ft | 514 kts | 45° |
| 2026-05-06 10:25 | 26.64088 | 123.97563 | 36995 ft | 515 kts | 45° |
| 2026-05-06 10:26 | 26.68686 | 124.03732 | 36999 ft | 516 kts | 45° |
| 2026-05-06 10:26 | 26.73289 | 124.09897 | 37003 ft | 517 kts | 45° |
| 2026-05-06 10:27 | 26.77868 | 124.16038 | 37002 ft | 517 kts | 45° |
| 2026-05-06 10:27 | 26.82473 | 124.22228 | 36995 ft | 518 kts | 45° |
| 2026-05-06 10:28 | 26.87082 | 124.28434 | 37003 ft | 518 kts | 45° |
| 2026-05-06 10:28 | 26.91692 | 124.34648 | 37000 ft | 518 kts | 45° |
| 2026-05-06 10:29 | 26.96304 | 124.40875 | 37002 ft | 519 kts | 45° |
| 2026-05-06 10:29 | 27.00923 | 124.47108 | 37003 ft | 519 kts | 45° |
| 2026-05-06 10:30 | 27.05547 | 124.53337 | 37008 ft | 520 kts | 45° |
| 2026-05-06 10:30 | 27.10178 | 124.59584 | 37007 ft | 521 kts | 45° |
| 2026-05-06 10:31 | 27.14818 | 124.65856 | 36991 ft | 522 kts | 45° |
| 2026-05-06 10:31 | 27.19461 | 124.72144 | 36996 ft | 523 kts | 45° |
| 2026-05-06 10:32 | 27.24078 | 124.78406 | 37006 ft | 524 kts | 45° |
| 2026-05-06 10:32 | 27.28733 | 124.84728 | 37011 ft | 525 kts | 45° |
| 2026-05-06 10:33 | 27.33389 | 124.91062 | 37014 ft | 526 kts | 45° |
| 2026-05-06 10:33 | 27.38059 | 124.97423 | 37011 ft | 527 kts | 45° |
| 2026-05-06 10:34 | 27.42740 | 125.03783 | 37014 ft | 528 kts | 45° |
| 2026-05-06 10:34 | 27.47455 | 125.10135 | 37009 ft | 529 kts | 45° |
| 2026-05-06 10:35 | 27.52156 | 125.16470 | 37015 ft | 529 kts | 45° |
| 2026-05-06 10:35 | 27.56872 | 125.22846 | 37005 ft | 530 kts | 45° |
| 2026-05-06 10:36 | 27.61597 | 125.29251 | 37008 ft | 531 kts | 45° |
| 2026-05-06 10:36 | 27.66321 | 125.35664 | 37004 ft | 531 kts | 46° |
| 2026-05-06 10:37 | 27.71039 | 125.42079 | 37010 ft | 532 kts | 46° |
| 2026-05-06 10:37 | 27.75771 | 125.48521 | 37010 ft | 532 kts | 46° |
| 2026-05-06 10:38 | 27.80471 | 125.54929 | 37012 ft | 533 kts | 46° |
| 2026-05-06 10:38 | 27.85197 | 125.61383 | 37007 ft | 534 kts | 46° |
| 2026-05-06 10:39 | 27.89165 | 125.66808 | 37011 ft | 534 kts | 46° |
| 2026-05-06 10:39 | 27.93902 | 125.73295 | 37007 ft | 535 kts | 46° |
| 2026-05-06 10:40 | 27.98653 | 125.79811 | 37014 ft | 536 kts | 46° |
| 2026-05-06 10:40 | 28.03402 | 125.86333 | 37013 ft | 537 kts | 46° |
| 2026-05-06 10:41 | 28.08152 | 125.92868 | 37014 ft | 538 kts | 47° |
| 2026-05-06 10:41 | 28.12909 | 125.99421 | 37001 ft | 539 kts | 47° |
| 2026-05-06 10:42 | 28.17634 | 126.05942 | 37026 ft | 539 kts | 47° |
| 2026-05-06 10:42 | 28.22398 | 126.12525 | 37006 ft | 540 kts | 47° |
| 2026-05-06 10:43 | 28.27162 | 126.19119 | 37019 ft | 541 kts | 47° |
| 2026-05-06 10:44 | 28.34319 | 126.29045 | 37017 ft | 542 kts | 47° |
| 2026-05-06 10:44 | 28.39104 | 126.35692 | 37019 ft | 543 kts | 47° |
| 2026-05-06 10:45 | 28.43893 | 126.42358 | 37022 ft | 544 kts | 47° |
| 2026-05-06 10:45 | 28.48687 | 126.49040 | 37028 ft | 545 kts | 48° |
| 2026-05-06 10:46 | 28.53487 | 126.55742 | 37026 ft | 547 kts | 48° |
| 2026-05-06 10:46 | 28.58266 | 126.62426 | 37034 ft | 548 kts | 48° |
| 2026-05-06 10:47 | 28.63088 | 126.69179 | 37028 ft | 549 kts | 48° |
| 2026-05-06 10:47 | 28.67915 | 126.75950 | 37031 ft | 550 kts | 48° |
| 2026-05-06 10:48 | 28.72735 | 126.82724 | 37029 ft | 551 kts | 48° |
| 2026-05-06 10:48 | 28.77538 | 126.89484 | 37033 ft | 552 kts | 48° |
| 2026-05-06 10:49 | 28.82376 | 126.96305 | 37032 ft | 553 kts | 49° |
| 2026-05-06 10:49 | 28.87219 | 127.03143 | 37040 ft | 555 kts | 49° |
| 2026-05-06 10:50 | 28.92073 | 127.10009 | 37033 ft | 556 kts | 49° |
| 2026-05-06 10:50 | 28.96931 | 127.16892 | 37037 ft | 557 kts | 49° |
| 2026-05-06 10:51 | 29.01805 | 127.23808 | 37032 ft | 558 kts | 49° |
| 2026-05-06 10:51 | 29.06647 | 127.30692 | 37036 ft | 559 kts | 49° |
| 2026-05-06 10:52 | 29.11528 | 127.37641 | 37035 ft | 560 kts | 49° |
| 2026-05-06 10:52 | 29.16410 | 127.44604 | 37035 ft | 561 kts | 49° |
| 2026-05-06 10:53 | 29.21295 | 127.51583 | 37038 ft | 562 kts | 49° |
| 2026-05-06 10:53 | 29.26184 | 127.58580 | 37042 ft | 563 kts | 49° |
| 2026-05-06 10:54 | 29.31077 | 127.65595 | 37042 ft | 564 kts | 49° |
| 2026-05-06 10:54 | 29.35953 | 127.72598 | 37043 ft | 565 kts | 49° |
| 2026-05-06 10:55 | 29.40854 | 127.79647 | 37042 ft | 566 kts | 49° |
| 2026-05-06 10:55 | 29.45764 | 127.86724 | 37043 ft | 567 kts | 49° |
| 2026-05-06 10:56 | 29.50682 | 127.93824 | 37042 ft | 569 kts | 49° |
| 2026-05-06 10:56 | 29.55608 | 128.00942 | 37043 ft | 570 kts | 49° |
| 2026-05-06 10:57 | 29.60545 | 128.08077 | 37042 ft | 571 kts | 49° |
| 2026-05-06 10:57 | 29.65494 | 128.15242 | 37045 ft | 572 kts | 49° |
| 2026-05-06 10:58 | 29.70412 | 128.22379 | 37051 ft | 574 kts | 50° |
| 2026-05-06 10:58 | 29.75370 | 128.29588 | 37049 ft | 574 kts | 49° |
| 2026-05-06 10:59 | 29.80329 | 128.36811 | 37043 ft | 575 kts | 50° |
| 2026-05-06 10:59 | 29.85298 | 128.44060 | 37046 ft | 576 kts | 50° |
| 2026-05-06 11:00 | 29.90260 | 128.51313 | 37051 ft | 577 kts | 49° |
| 2026-05-06 11:00 | 29.95223 | 128.58579 | 37055 ft | 577 kts | 49° |
| 2026-05-06 11:01 | 30.00186 | 128.65859 | 37038 ft | 577 kts | 49° |
| 2026-05-06 11:01 | 30.05147 | 128.73151 | 37054 ft | 577 kts | 49° |
| 2026-05-06 11:02 | 30.10112 | 128.80460 | 37060 ft | 577 kts | 49° |
| 2026-05-06 11:02 | 30.15033 | 128.87720 | 37051 ft | 577 kts | 49° |
| 2026-05-06 11:03 | 30.19983 | 128.95035 | 37055 ft | 578 kts | 49° |
| 2026-05-06 11:03 | 30.24939 | 129.02371 | 37060 ft | 578 kts | 49° |
| 2026-05-06 11:04 | 30.29891 | 129.09710 | 37056 ft | 578 kts | 49° |
| 2026-05-06 11:04 | 30.34836 | 129.17052 | 37060 ft | 578 kts | 49° |
| 2026-05-06 11:05 | 30.39786 | 129.24418 | 37059 ft | 580 kts | 49° |
| 2026-05-06 11:05 | 30.44740 | 129.31806 | 37065 ft | 580 kts | 50° |
| 2026-05-06 11:06 | 30.49667 | 129.39166 | 37062 ft | 580 kts | 50° |
| 2026-05-06 11:06 | 30.54611 | 129.46565 | 37059 ft | 580 kts | 50° |
| 2026-05-06 11:07 | 30.59547 | 129.53967 | 37060 ft | 579 kts | 50° |
| 2026-05-06 11:07 | 30.64470 | 129.61363 | 37060 ft | 578 kts | 50° |
| 2026-05-06 11:08 | 30.69385 | 129.68759 | 37057 ft | 577 kts | 50° |
| 2026-05-06 11:08 | 30.74242 | 129.76083 | 37058 ft | 575 kts | 50° |
| 2026-05-06 11:09 | 30.79043 | 129.83338 | 37066 ft | 574 kts | 50° |
| 2026-05-06 11:09 | 30.83908 | 129.90713 | 37066 ft | 573 kts | 51° |
| 2026-05-06 11:10 | 30.88308 | 129.98464 | 37076 ft | 574 kts | 57° |
| 2026-05-06 11:10 | 30.92457 | 130.06409 | 37074 ft | 574 kts | 58° |
| 2026-05-06 11:11 | 30.96608 | 130.14362 | 37080 ft | 574 kts | 58° |
| 2026-05-06 11:11 | 31.00761 | 130.22233 | 37071 ft | 574 kts | 57° |
| 2026-05-06 11:12 | 31.04956 | 130.30155 | 37078 ft | 574 kts | 57° |
| 2026-05-06 11:12 | 31.09152 | 130.38096 | 37079 ft | 574 kts | 57° |
| 2026-05-06 11:13 | 31.13336 | 130.46043 | 37084 ft | 574 kts | 58° |
| 2026-05-06 11:13 | 31.17519 | 130.54008 | 37090 ft | 575 kts | 57° |
| 2026-05-06 11:14 | 31.21696 | 130.61977 | 37089 ft | 575 kts | 58° |
| 2026-05-06 11:14 | 31.25872 | 130.69959 | 37083 ft | 576 kts | 58° |
| 2026-05-06 11:15 | 31.30018 | 130.77900 | 37091 ft | 575 kts | 58° |
| 2026-05-06 11:15 | 31.34182 | 130.85893 | 37090 ft | 576 kts | 58° |
| 2026-05-06 11:16 | 31.38347 | 130.93904 | 37098 ft | 575 kts | 58° |
| 2026-05-06 11:16 | 31.42505 | 131.01918 | 37099 ft | 575 kts | 58° |
| 2026-05-06 11:17 | 31.46651 | 131.09928 | 37103 ft | 575 kts | 58° |
| 2026-05-06 11:17 | 31.50793 | 131.17943 | 37106 ft | 575 kts | 58° |
| 2026-05-06 11:18 | 31.54928 | 131.25966 | 37105 ft | 574 kts | 58° |
| 2026-05-06 11:18 | 31.59054 | 131.33986 | 37100 ft | 573 kts | 58° |
| 2026-05-06 11:19 | 31.63139 | 131.41947 | 37113 ft | 573 kts | 58° |
| 2026-05-06 11:19 | 31.67243 | 131.49968 | 37112 ft | 572 kts | 58° |
| 2026-05-06 11:20 | 31.71340 | 131.57992 | 37105 ft | 573 kts | 58° |
| 2026-05-06 11:20 | 31.75438 | 131.66037 | 37099 ft | 573 kts | 59° |
| 2026-05-06 11:21 | 31.79531 | 131.74092 | 37105 ft | 573 kts | 59° |
| 2026-05-06 11:21 | 31.83620 | 131.82155 | 37099 ft | 574 kts | 59° |
| 2026-05-06 11:22 | 31.87016 | 131.88864 | 37104 ft | 574 kts | 59° |
| 2026-05-06 11:22 | 31.91094 | 131.96935 | 37095 ft | 573 kts | 59° |
| 2026-05-06 11:23 | 31.95165 | 132.05010 | 37099 ft | 573 kts | 59° |
| 2026-05-06 11:23 | 31.99230 | 132.13093 | 37093 ft | 573 kts | 59° |
| 2026-05-06 11:24 | 32.03269 | 132.21138 | 37101 ft | 572 kts | 59° |
| 2026-05-06 11:24 | 32.07314 | 132.29217 | 37095 ft | 572 kts | 59° |
| 2026-05-06 11:25 | 32.11354 | 132.37299 | 37099 ft | 572 kts | 59° |
| 2026-05-06 11:25 | 32.15145 | 132.45561 | 37096 ft | 572 kts | 64° |
| 2026-05-06 11:26 | 32.18674 | 132.53981 | 37100 ft | 572 kts | 65° |
| 2026-05-06 11:26 | 32.22180 | 132.62404 | 37096 ft | 572 kts | 64° |
| 2026-05-06 11:27 | 32.25722 | 132.70827 | 37102 ft | 572 kts | 64° |
| 2026-05-06 11:27 | 32.29250 | 132.79189 | 37095 ft | 572 kts | 64° |
| 2026-05-06 11:28 | 32.32796 | 132.87614 | 37098 ft | 572 kts | 64° |
| 2026-05-06 11:28 | 32.36330 | 132.96040 | 37099 ft | 572 kts | 64° |
| 2026-05-06 11:28 | 32.38092 | 133.00248 | 36969 ft | 567 kts | 66° |
| 2026-05-06 11:29 | 32.39821 | 133.04377 | 37015 ft | 553 kts | 66° |
| 2026-05-06 11:29 | 32.43184 | 133.12434 | 37085 ft | 545 kts | 66° |
| 2026-05-06 11:30 | 32.46566 | 133.20573 | 37120 ft | 556 kts | 66° |
| 2026-05-06 11:30 | 32.49985 | 133.28806 | 37092 ft | 557 kts | 66° |
| 2026-05-06 11:31 | 32.53404 | 133.37051 | 37117 ft | 556 kts | 66° |
| 2026-05-06 11:31 | 32.56808 | 133.45281 | 37101 ft | 555 kts | 66° |
| 2026-05-06 11:32 | 32.60232 | 133.53493 | 37108 ft | 555 kts | 66° |
| 2026-05-06 11:32 | 32.63627 | 133.61637 | 37118 ft | 554 kts | 66° |
| 2026-05-06 11:33 | 32.66999 | 133.69852 | 37104 ft | 553 kts | 67° |
| 2026-05-06 11:33 | 32.70342 | 133.78072 | 37103 ft | 553 kts | 67° |
| 2026-05-06 11:34 | 32.73686 | 133.86297 | 37103 ft | 553 kts | 66° |
| 2026-05-06 11:34 | 32.77032 | 133.94535 | 37121 ft | 553 kts | 66° |
| 2026-05-06 11:35 | 32.80375 | 134.02783 | 37106 ft | 554 kts | 66° |
| 2026-05-06 11:35 | 32.83315 | 134.11221 | 37100 ft | 551 kts | 76° |
| 2026-05-06 11:36 | 32.85465 | 134.19960 | 37104 ft | 551 kts | 78° |
| 2026-05-06 11:36 | 32.87567 | 134.28729 | 37112 ft | 552 kts | 77° |
| 2026-05-06 11:37 | 32.89727 | 134.37515 | 37111 ft | 553 kts | 77° |
| 2026-05-06 11:37 | 32.91912 | 134.46308 | 37107 ft | 554 kts | 77° |